Time;durP1;ratioP1;P1;durP2;ratioP2;P2;SDS_P1;SDS_P2;PMS_P1;PMS_P2;Temp;Humidity;BMP_temperature;BMP_pressure;BME280_temperature;BME280_humidity;BME280_pressure;Samples;Min_cycle;Max_cycle;Signal;HPM_P1;HPM_P2
2022/08/02 00:00:44;;;;;;;3.97;2.00;;;;;;;14.01;100.00;101877.47;2615235;31;20034;-55
2022/08/02 00:03:15;;;;;;;8.57;2.22;;;;;;;14.13;100.00;101881.00;2614726;36;20744;-52
2022/08/02 00:05:44;;;;;;;3.60;1.83;;;;;;;14.19;100.00;101888.56;2615488;36;20042;-55
2022/08/02 00:08:12;;;;;;;5.40;2.00;;;;;;;14.17;100.00;101884.28;2615214;36;20034;-55
2022/08/02 00:10:40;;;;;;;4.80;2.15;;;;;;;14.16;100.00;101874.44;2615551;36;20308;-55
2022/08/02 00:13:08;;;;;;;6.63;1.95;;;;;;;14.11;100.00;101879.41;2615310;36;20455;-56
2022/08/02 00:15:37;;;;;;;6.80;2.17;;;;;;;14.15;100.00;101875.44;2614669;36;20069;-55
2022/08/02 00:18:05;;;;;;;5.38;2.17;;;;;;;14.13;100.00;101875.56;2614488;31;20038;-52
2022/08/02 00:20:36;;;;;;;5.13;1.95;;;;;;;14.01;100.00;101872.06;2615155;36;20022;-55
2022/08/02 00:23:04;;;;;;;2.90;1.77;;;;;;;13.98;100.00;101863.38;2615281;36;20035;-54
2022/08/02 00:25:33;;;;;;;4.68;2.00;;;;;;;14.01;100.00;101861.22;2615305;36;20042;-55
2022/08/02 00:28:01;;;;;;;4.78;2.17;;;;;;;13.97;100.00;101865.22;2615908;31;20027;-56
2022/08/02 00:30:29;;;;;;;5.43;2.03;;;;;;;13.98;100.00;101863.38;2615477;36;20061;-55
2022/08/02 00:32:58;;;;;;;4.67;2.00;;;;;;;13.99;100.00;101863.22;2614360;36;20057;-56
2022/08/02 00:35:26;;;;;;;3.50;2.00;;;;;;;13.77;100.00;101860.69;2614793;36;20632;-56
2022/08/02 00:37:57;;;;;;;3.97;1.90;;;;;;;13.81;100.00;101862.13;2615091;36;20503;-51
2022/08/02 00:40:26;;;;;;;5.50;1.88;;;;;;;13.88;100.00;101860.59;2615304;36;20283;-55
2022/08/02 00:43:03;;;;;;;4.93;2.13;;;;;;;13.80;100.00;101860.41;2615386;36;20602;-54
2022/08/02 00:45:32;;;;;;;4.45;1.83;;;;;;;13.77;100.00;101864.22;2614427;36;20057;-55
2022/08/02 00:48:00;;;;;;;5.00;1.80;;;;;;;13.65;100.00;101859.91;2614834;36;20041;-56
2022/08/02 00:50:29;;;;;;;2.90;1.80;;;;;;;13.62;100.00;101863.72;2615152;36;20037;-55
2022/08/02 00:53:01;;;;;;;6.97;2.10;;;;;;;13.57;100.00;101859.69;2614936;36;20038;-55
2022/08/02 00:55:30;;;;;;;3.28;2.10;;;;;;;13.40;100.00;101861.13;2615092;36;20065;-55
2022/08/02 00:57:58;;;;;;;2.92;1.90;;;;;;;13.46;100.00;101849.78;2615737;36;20046;-56
2022/08/02 01:00:26;;;;;;;5.35;1.98;;;;;;;13.57;100.00;101844.28;2614476;31;20609;-53
2022/08/02 01:02:55;;;;;;;8.30;2.13;;;;;;;13.53;100.00;101853.69;2614849;36;20038;-57
2022/08/02 01:05:23;;;;;;;4.97;2.20;;;;;;;13.49;100.00;101852.22;2615121;36;20034;-54
2022/08/02 01:07:51;;;;;;;6.88;2.10;;;;;;;13.47;100.00;101846.94;2615442;36;20042;-55
2022/08/02 01:10:22;;;;;;;6.45;2.30;;;;;;;13.42;100.00;101845.63;2614690;36;20034;-56
2022/08/02 01:12:50;;;;;;;3.80;2.20;;;;;;;13.33;100.00;101845.38;2615279;36;20035;-57
2022/08/02 01:15:19;;;;;;;3.37;2.03;;;;;;;13.39;100.00;101835.06;2614354;36;20037;-54
2022/08/02 01:17:54;;;;;;;5.38;2.10;;;;;;;13.46;100.00;101836.25;2614187;36;20073;-56
2022/08/02 01:20:45;;;;;;;4.05;2.20;;;;;;;13.41;100.00;101833.09;2614985;31;20038;-57
2022/08/02 01:23:35;;;;;;;5.00;1.80;;;;;;;13.43;100.00;101831.13;2615270;36;21123;-58
2022/08/02 01:26:23;;;;;;;;;;;;;;;13.34;100.00;101832.75;2616321;36;20364;-55
2022/08/02 01:28:58;;;;;;;5.47;2.27;;;;;;;13.43;100.00;101836.53;2615184;36;19954;-54
2022/08/02 01:31:36;;;;;;;4.55;2.05;;;;;;;13.39;100.00;101821.56;2615027;36;20042;-54
2022/08/02 01:34:08;;;;;;;3.40;2.30;;;;;;;13.36;100.00;101817.25;2614741;36;20034;-54
2022/08/02 01:36:40;;;;;;;4.68;2.15;;;;;;;13.49;100.00;101811.66;2615182;36;20045;-56
2022/08/02 01:39:11;;;;;;;5.18;2.20;;;;;;;13.58;100.00;101808.16;2615530;36;20555;-51
2022/08/02 01:41:41;;;;;;;5.65;2.38;;;;;;;13.48;100.00;101807.22;2615041;31;20042;-60
2022/08/02 01:44:15;;;;;;;4.15;2.20;;;;;;;13.50;100.00;101802.56;2615123;36;20073;-55
2022/08/02 01:46:45;;;;;;;5.40;2.25;;;;;;;13.60;100.00;101810.72;2614644;36;20037;-52
2022/08/02 01:49:17;;;;;;;3.78;2.15;;;;;;;13.64;100.00;101820.28;2614987;36;20524;-53
2022/08/02 01:54:34;;;;;;;4.10;2.30;;;;;;;13.65;100.00;101816.63;2615179;36;20034;-52
2022/08/02 01:57:05;;;;;;;5.32;2.10;;;;;;;13.58;100.00;101812.72;2614905;36;20041;-55
2022/08/02 01:59:38;;;;;;;4.88;2.13;;;;;;;13.49;100.00;101811.66;2615166;36;20026;-54
2022/08/02 02:02:09;;;;;;;5.63;1.92;;;;;;;13.52;100.00;101813.25;2614341;36;20423;-54
2022/08/02 02:04:39;;;;;;;6.22;2.33;;;;;;;13.59;100.00;101811.72;2615357;36;20081;-55
2022/08/02 02:07:09;;;;;;;4.93;2.50;;;;;;;13.65;100.00;101812.03;2614755;36;20089;-55
2022/08/02 02:09:40;;;;;;;5.78;2.10;;;;;;;13.61;100.00;101816.00;2615631;36;20030;-52
2022/08/02 02:12:11;;;;;;;6.85;2.50;;;;;;;13.53;100.00;101802.31;2614429;36;20037;-55
2022/08/02 02:14:42;;;;;;;5.90;2.47;;;;;;;13.46;100.00;101801.97;2616169;36;20026;-53
2022/08/02 02:17:11;;;;;;;5.47;2.28;;;;;;;13.50;100.00;101794.47;2614268;36;20035;-54
2022/08/02 02:19:41;;;;;;;7.22;2.83;;;;;;;13.52;100.00;101794.31;2615479;36;20468;-55
2022/08/02 02:22:09;;;;;;;;;;;;;;;13.43;100.00;101785.16;2614707;36;20407;-54
2022/08/02 02:24:38;;;;;;;3.90;2.10;;;;;;;13.46;100.00;101780.31;2615477;36;19953;-55
2022/08/02 02:27:09;;;;;;;8.88;2.60;;;;;;;13.52;100.00;101770.81;2614650;36;20045;-57
2022/08/02 02:29:41;;;;;;;5.13;2.15;;;;;;;13.52;100.00;101768.13;2615593;36;20053;-54
2022/08/02 02:32:14;;;;;;;6.78;2.40;;;;;;;13.49;100.00;101768.38;2613668;36;20042;-55
2022/08/02 02:34:46;;;;;;;4.93;2.30;;;;;;;13.52;100.00;101762.72;2614867;36;20034;-56
2022/08/02 02:37:17;;;;;;;4.70;2.17;;;;;;;13.44;100.00;101765.22;2614739;36;20031;-53
2022/08/02 02:39:47;;;;;;;4.75;2.25;;;;;;;13.56;100.00;101766.00;2615499;36;20065;-56
2022/08/02 02:42:16;;;;;;;;;;;;;;;13.67;100.00;101765.91;2615145;36;20542;-58
2022/08/02 02:44:47;;;;;;;9.57;2.60;;;;;;;13.62;100.00;101762.78;2615023;36;19973;-59
2022/08/02 02:47:20;;;;;;;5.47;2.58;;;;;;;13.61;100.00;101761.91;2614447;36;20035;-57
2022/08/02 02:49:50;;;;;;;7.75;2.60;;;;;;;13.60;100.00;101764.75;2614472;31;20034;-55
2022/08/02 02:52:19;;;;;;;5.25;2.20;;;;;;;13.80;100.00;101761.16;2614166;36;20030;-56
2022/08/02 02:54:50;;;;;;;6.80;2.08;;;;;;;13.80;100.00;101761.16;2614871;31;20044;-54
2022/08/02 02:57:20;;;;;;;5.22;2.20;;;;;;;13.83;100.00;101768.16;2614764;36;20034;-54
2022/08/02 02:59:48;;;;;;;;;;;;;;;13.91;100.00;101767.47;2616056;31;20519;-53
2022/08/02 03:02:20;;;;;;;7.90;2.40;;;;;;;13.90;100.00;101766.63;2614041;36;19955;-55
2022/08/02 03:04:49;;;;;;;7.00;2.25;;;;;;;14.00;100.00;101764.81;2615019;36;20078;-54
2022/08/02 03:07:17;;;;;;;6.30;2.50;;;;;;;14.13;100.00;101763.69;2614614;36;20026;-55
2022/08/02 03:09:45;;;;;;;6.83;2.30;;;;;;;14.17;100.00;101766.00;2615119;36;20574;-55
2022/08/02 03:12:14;;;;;;;5.27;2.40;;;;;;;14.14;100.00;101765.41;2614773;36;20058;-56
2022/08/02 03:14:45;;;;;;;7.00;2.63;;;;;;;14.05;100.00;101763.53;2616208;36;20275;-51
2022/08/02 03:17:15;;;;;;;5.53;2.30;;;;;;;14.12;100.00;101760.16;2614904;36;20142;-57
2022/08/02 03:19:46;;;;;;;3.53;2.17;;;;;;;14.13;100.00;101761.00;2615674;36;20118;-52
2022/08/02 03:22:15;;;;;;;4.93;2.40;;;;;;;14.11;100.00;101757.56;2614692;36;20023;-59
2022/08/02 03:24:45;;;;;;;5.32;2.20;;;;;;;14.11;100.00;101753.00;2615718;36;20065;-55
2022/08/02 03:27:14;;;;;;;9.52;2.30;;;;;;;14.11;100.00;101753.00;2615525;36;20042;-54
2022/08/02 03:29:42;;;;;;;5.63;1.98;;;;;;;14.15;100.00;101745.47;2614902;36;20054;-55
2022/08/02 03:32:10;;;;;;;6.05;2.30;;;;;;;14.10;100.00;101742.31;2614466;36;20456;-56
2022/08/02 03:34:38;;;;;;;4.40;2.17;;;;;;;14.14;100.00;101754.59;2615802;36;20034;-58
2022/08/02 03:37:10;;;;;;;2.53;1.87;;;;;;;14.15;100.00;101751.75;2615419;36;20061;-56
2022/08/02 03:39:39;;;;;;;7.72;2.08;;;;;;;14.14;100.00;101746.47;2615843;36;20042;-51
2022/08/02 03:42:11;;;;;;;5.85;2.20;;;;;;;14.03;100.00;101739.31;2615342;36;20038;-54
2022/08/02 03:44:42;;;;;;;6.32;2.05;;;;;;;14.00;100.00;101739.56;2615507;36;20039;-58
2022/08/02 03:47:10;;;;;;;7.30;1.85;;;;;;;14.02;100.00;101733.03;2615056;36;20626;-56
2022/08/02 03:49:40;;;;;;;3.95;2.00;;;;;;;14.04;100.00;101734.75;2615228;36;20031;-57
2022/08/02 03:52:10;;;;;;;;;;;;;;;14.04;100.00;101730.19;2615131;31;20071;-55
2022/08/02 03:54:39;;;;;;;4.93;2.28;;;;;;;14.00;100.00;101728.75;2615386;36;19951;-56
2022/08/02 03:57:08;;;;;;;5.68;1.90;;;;;;;13.97;100.00;101724.47;2615800;36;20035;-52
2022/08/02 03:59:43;;;;;;;6.07;2.10;;;;;;;13.95;100.00;101726.44;2615047;31;20034;-55
2022/08/02 04:02:15;;;;;;;4.68;1.85;;;;;;;13.93;100.00;101733.00;2614640;36;20523;-56
2022/08/02 04:04:43;;;;;;;5.25;2.08;;;;;;;13.97;100.00;101739.84;2615729;36;20030;-54
2022/08/02 04:07:14;;;;;;;4.43;1.90;;;;;;;14.00;100.00;101734.16;2613756;36;20039;-55
2022/08/02 04:09:43;;;;;;;6.90;1.75;;;;;;;14.20;100.00;101729.66;2615859;36;20299;-55
2022/08/02 04:12:11;;;;;;;3.67;1.70;;;;;;;14.31;100.00;101725.97;2614989;36;20065;-52
2022/08/02 04:14:39;;;;;;;2.70;1.80;;;;;;;14.30;100.00;101725.13;2615401;36;20061;-52
2022/08/02 04:17:10;;;;;;;3.33;1.77;;;;;;;14.32;100.00;101727.69;2613799;36;20035;-51
2022/08/02 04:19:42;;;;;;;6.13;2.00;;;;;;;14.32;100.00;101727.69;2615761;36;20082;-56
2022/08/02 04:22:16;;;;;;;3.78;1.55;;;;;;;14.32;100.00;101725.84;2614749;31;20031;-55
2022/08/02 04:24:50;;;;;;;4.03;2.28;;;;;;;14.32;100.00;101735.81;2615379;36;20053;-59
2022/08/02 04:27:21;;;;;;;3.72;1.90;;;;;;;14.29;100.00;101727.97;2615558;36;20057;-56
2022/08/02 04:29:51;;;;;;;3.05;1.58;;;;;;;14.27;100.00;101725.41;2615395;36;20030;-56
2022/08/02 04:32:19;;;;;;;4.47;1.70;;;;;;;14.23;100.00;101734.81;2614640;36;20034;-56
2022/08/02 04:34:48;;;;;;;5.28;1.75;;;;;;;14.20;100.00;101716.13;2614898;36;20031;-54
2022/08/02 04:37:19;;;;;;;5.22;1.88;;;;;;;14.22;100.00;101719.53;2615640;36;20451;-55
2022/08/02 04:39:47;;;;;;;5.32;1.73;;;;;;;14.23;100.00;101723.13;2614517;36;20046;-54
2022/08/02 04:42:22;;;;;;;3.80;2.13;;;;;;;14.20;100.00;101727.81;2614933;36;20035;-56
2022/08/02 04:44:50;;;;;;;2.95;1.77;;;;;;;14.23;100.00;101728.53;2615333;36;20153;-55
2022/08/02 04:47:19;;;;;;;4.65;1.65;;;;;;;14.31;100.00;101740.41;2615356;36;20468;-52
2022/08/02 04:49:47;;;;;;;4.45;1.80;;;;;;;14.32;100.00;101722.28;2615855;36;20034;-56
2022/08/02 04:52:18;;;;;;;5.18;1.80;;;;;;;14.48;100.00;101729.88;2614858;31;20065;-58
2022/08/02 04:54:46;;;;;;;3.80;1.80;;;;;;;14.57;100.00;101717.34;2615500;36;20035;-56
2022/08/02 04:59:56;;;;;;;4.93;1.73;;;;;;;14.47;100.00;101704.66;2615406;36;20040;-55
2022/08/02 05:02:24;;;;;;;3.75;1.70;;;;;;;14.43;100.00;101705.03;2614413;31;20038;-55
2022/08/02 05:04:53;;;;;;;5.30;1.83;;;;;;;14.51;100.00;101697.06;2615862;36;20364;-56
2022/08/02 05:07:23;;;;;;;5.65;2.05;;;;;;;14.66;100.00;101708.38;2614941;36;20578;-56
2022/08/02 05:09:52;;;;;;;4.15;1.70;;;;;;;14.73;100.00;101697.84;2615992;36;20431;-55
2022/08/02 05:12:21;;;;;;;5.05;2.00;;;;;;;14.82;100.00;101696.97;2614433;36;20034;-56
2022/08/02 05:14:49;;;;;;;7.88;1.90;;;;;;;15.00;100.00;101699.81;2615848;36;20427;-56
2022/08/02 05:17:17;;;;;;;4.30;1.80;;;;;;;14.96;100.00;101696.53;2615431;31;20581;-54
2022/08/02 05:19:45;;;;;;;5.80;2.00;;;;;;;15.12;100.00;101709.50;2615489;31;20031;-57
2022/08/02 05:22:14;;;;;;;3.72;1.70;;;;;;;15.32;100.00;101704.88;2614643;31;20444;-55
2022/08/02 05:24:45;;;;;;;4.33;2.13;;;;;;;15.41;100.00;101704.03;2615806;36;20030;-58
2022/08/02 05:27:13;;;;;;;4.85;1.92;;;;;;;15.45;100.00;101703.72;2614701;36;20343;-56
2022/08/02 05:29:41;;;;;;;4.00;1.80;;;;;;;15.62;100.00;101696.66;2615312;36;20606;-52
2022/08/02 05:32:09;;;;;;;5.82;1.77;;;;;;;15.67;100.00;101700.63;2613851;36;20089;-53
2022/08/02 05:34:38;;;;;;;1.80;1.30;;;;;;;15.73;100.00;101707.31;2615729;36;20121;-55
2022/08/02 05:37:06;;;;;;;2.33;1.60;;;;;;;15.93;100.00;101708.13;2615122;36;20042;-58
2022/08/02 05:39:34;;;;;;;3.58;1.48;;;;;;;16.13;100.00;101714.31;2614711;36;20034;-55
2022/08/02 05:42:06;;;;;;;5.50;1.75;;;;;;;16.24;100.00;101713.25;2614746;36;20611;-56
2022/08/02 05:44:34;;;;;;;2.25;1.30;;;;;;;16.42;100.00;101703.25;2615496;31;20034;-56
2022/08/02 05:47:02;;;;;;;5.47;2.20;;;;;;;16.55;100.00;101702.00;2614155;36;20065;-52
2022/08/02 05:49:30;;;;;;;4.30;1.67;;;;;;;16.67;100.00;101694.50;2615602;36;20061;-56
2022/08/02 05:52:06;;;;;;;5.67;1.50;;;;;;;16.79;100.00;101704.13;2614401;36;20030;-57
2022/08/02 05:54:47;;;;;;;4.45;1.48;;;;;;;16.79;100.00;101699.50;2615588;36;20030;-57
2022/08/02 05:57:32;;;;;;;6.57;1.35;;;;;;;16.86;100.00;101690.72;2615119;36;20471;-54
2022/08/02 06:00:11;;;;;;;4.65;1.50;;;;;;;16.85;100.00;101694.47;2616070;31;20525;-56
2022/08/02 06:02:57;;;;;;;5.10;1.55;;;;;;;17.06;100.00;101697.72;2615245;36;20448;-55
2022/08/02 06:05:28;;;;;;;3.83;1.52;;;;;;;17.37;100.00;101696.41;2614947;36;20038;-56
2022/08/02 06:07:59;;;;;;;6.05;1.90;;;;;;;17.22;100.00;101691.56;2615242;36;20035;-54
2022/08/02 06:10:30;;;;;;;4.13;1.88;;;;;;;17.31;100.00;101695.19;2615288;36;20058;-55
2022/08/02 06:13:10;;;;;;;9.20;1.98;;;;;;;17.45;100.00;101683.72;2614639;36;20034;-51
2022/08/02 06:15:40;;;;;;;5.07;2.03;;;;;;;17.51;100.00;101680.34;2615472;36;20030;-59
2022/08/02 06:18:09;;;;;;;6.40;2.17;;;;;;;17.54;100.00;101681.06;2614459;36;20038;-55
2022/08/02 06:20:38;;;;;;;7.38;2.47;;;;;;;17.71;100.00;101682.84;2614712;36;20038;-53
2022/08/02 06:23:08;;;;;;;6.28;2.00;;;;;;;17.78;100.00;101680.31;2614850;36;20030;-54
2022/08/02 06:25:39;;;;;;;4.95;1.83;;;;;;;17.86;100.00;101680.34;2615129;36;20034;-53
2022/08/02 06:28:10;;;;;;;5.90;1.85;;;;;;;17.98;100.00;101678.22;2614105;36;20034;-54
2022/08/02 06:30:39;;;;;;;5.75;2.10;;;;;;;18.08;100.00;101672.59;2615401;36;20038;-50
2022/08/02 06:33:07;;;;;;;5.40;1.55;;;;;;;18.04;100.00;101672.09;2614955;36;20085;-52
2022/08/02 06:35:44;;;;;;;4.73;1.77;;;;;;;18.16;100.00;101668.03;2615044;36;20046;-55
2022/08/02 06:38:16;;;;;;;3.90;1.90;;;;;;;18.20;100.00;101666.69;2615361;36;20299;-52
2022/08/02 06:40:50;;;;;;;5.45;2.15;;;;;;;18.43;100.00;101671.50;2615250;36;20057;-56
2022/08/02 06:43:28;;;;;;;6.38;2.50;;;;;;;18.73;100.00;101655.50;2615292;36;20034;-51
2022/08/02 06:45:56;;;;;;;4.03;1.98;;;;;;;18.91;100.00;101658.94;2615898;36;20038;-50
2022/08/02 06:48:24;;;;;;;4.20;2.00;;;;;;;19.17;100.00;101649.69;2615101;36;20061;-50
2022/08/02 06:50:52;;;;;;;4.50;2.08;;;;;;;19.28;100.00;101653.09;2615574;36;20026;-51
2022/08/02 06:53:21;;;;;;;3.60;2.00;;;;;;;19.50;100.00;101641.41;2615875;36;20420;-50
2022/08/02 06:55:49;;;;;;;3.67;2.13;;;;;;;19.72;100.00;101649.88;2615529;36;20093;-51
2022/08/02 06:58:17;;;;;;;6.82;1.90;;;;;;;19.97;100.00;101652.53;2615075;36;20031;-49
2022/08/02 07:00:48;;;;;;;3.23;1.90;;;;;;;20.09;100.00;101648.34;2615801;36;20038;-50
2022/08/02 07:03:17;;;;;;;4.78;1.92;;;;;;;20.10;100.00;101636.38;2615485;36;20061;-55
2022/08/02 07:05:47;;;;;;;5.22;2.22;;;;;;;20.36;100.00;101643.38;2615514;36;20030;-55
2022/08/02 07:08:15;;;;;;;3.60;2.10;;;;;;;20.00;100.00;101642.06;2615561;36;20071;-49
2022/08/02 07:10:44;;;;;;;5.90;4.15;;;;;;;19.93;100.00;101647.41;2616849;31;20476;-55
2022/08/02 07:13:12;;;;;;;5.95;2.45;;;;;;;20.14;100.00;101637.75;2614955;36;20065;-49
2022/08/02 07:15:41;;;;;;;6.18;2.20;;;;;;;20.57;100.00;101627.16;2615440;36;20039;-48
2022/08/02 07:18:14;;;;;;;3.95;2.63;;;;;;;20.42;100.00;101634.44;2615248;36;20055;-53
2022/08/02 07:20:46;;;;;;;5.85;2.35;;;;;;;20.64;100.00;101619.94;2616180;36;20483;-49
2022/08/02 07:23:14;;;;;;;6.10;2.70;;;;;;;20.77;100.00;101630.28;2615795;36;20065;-53
2022/08/02 07:25:43;;;;;;;4.80;2.53;;;;;;;20.94;100.00;101630.13;2615618;36;20061;-49
2022/08/02 07:28:14;;;;;;;4.85;2.22;;;;;;;21.08;100.00;101623.81;2615461;36;20054;-50
2022/08/02 07:30:43;;;;;;;8.10;2.78;;;;;;;21.30;100.00;101616.56;2614928;36;20551;-48
2022/08/02 07:33:13;;;;;;;;;;;;;;;21.26;100.00;101614.38;2615544;36;20041;-50
2022/08/02 07:35:42;;;;;;;7.38;3.30;;;;;;;21.04;100.00;101616.16;2615353;36;19973;-47
2022/08/02 07:38:10;;;;;;;6.03;3.10;;;;;;;21.10;100.00;101613.53;2615525;36;20412;-46
2022/08/02 07:40:39;;;;;;;7.40;3.47;;;;;;;20.96;100.00;101619.81;2615589;36;20066;-50
2022/08/02 07:43:07;;;;;;;9.05;3.33;;;;;;;21.51;100.00;101623.22;2616159;36;20431;-50
2022/08/02 07:45:35;;;;;;;6.25;3.45;;;;;;;21.66;100.00;101621.28;2615537;36;20105;-49
2022/08/02 07:48:04;;;;;;;6.80;3.83;;;;;;;21.83;100.00;101621.06;2614607;36;20569;-47
2022/08/02 07:50:35;;;;;;;;;;;;;;;21.60;100.00;101621.19;2615786;36;20038;-48
2022/08/02 07:53:04;;;;;;;9.15;4.32;;;;;;;21.40;100.00;101615.44;2615516;36;19998;-50
2022/08/02 07:55:32;;;;;;;9.95;4.68;;;;;;;21.52;100.00;101611.19;2615459;36;20070;-51
2022/08/02 07:58:01;;;;;;;8.55;4.82;;;;;;;21.78;100.00;101618.06;2615292;36;20046;-49
2022/08/02 08:00:29;;;;;;;5.38;3.97;;;;;;;21.94;100.00;101615.09;2615524;36;20035;-53
2022/08/02 08:02:58;;;;;;;8.48;4.00;;;;;;;22.46;100.00;101613.13;2614693;36;20421;-52
2022/08/02 08:05:26;;;;;;;7.22;3.60;;;;;;;22.52;100.00;101614.22;2615478;36;20137;-50
2022/08/02 08:07:57;;;;;;;10.75;4.35;;;;;;;22.35;100.00;101602.69;2616238;36;20456;-47
2022/08/02 08:10:25;;;;;;;7.53;4.13;;;;;;;22.53;100.00;101596.72;2615406;36;20101;-49
2022/08/02 08:12:54;;;;;;;9.07;5.65;;;;;;;22.47;100.00;101592.88;2615472;36;20401;-49
2022/08/02 08:15:22;;;;;;;9.05;5.78;;;;;;;22.45;100.00;101591.38;2615609;36;20034;-50
2022/08/02 08:17:50;;;;;;;10.57;5.07;;;;;;;22.61;100.00;101598.47;2615035;36;20023;-49
2022/08/02 08:20:19;;;;;;;9.15;4.90;;;;;;;23.15;100.00;101608.84;2615203;36;20041;-52
2022/08/02 08:22:47;;;;;;;8.55;5.38;;;;;;;23.12;100.00;101600.16;2615247;36;20041;-47
2022/08/02 08:25:18;;;;;;;10.35;5.80;;;;;;;22.77;100.00;101591.84;2615913;36;20468;-53
2022/08/02 08:27:51;;;;;;;10.55;6.25;;;;;;;22.87;100.00;101595.09;2615596;36;20037;-47
2022/08/02 08:30:19;;;;;;;9.52;6.00;;;;;;;22.99;100.00;101607.22;2615684;36;20150;-54
2022/08/02 08:32:48;;;;;;;9.00;7.00;;;;;;;22.92;100.00;101604.44;2615468;36;20034;-52
2022/08/02 08:35:17;;;;;;;8.85;6.28;;;;;;;22.91;100.00;101604.66;2616269;36;20035;-57
2022/08/02 08:37:45;;;;;;;;;;;;;;;22.67;100.00;101601.28;2615095;36;20079;-48
2022/08/02 08:40:14;;;;;;;8.10;6.17;;;;;;;23.01;100.00;101607.88;2614771;36;19970;-47
2022/08/02 08:42:45;;;;;;;10.90;6.45;;;;;;;22.71;100.00;101585.28;2614346;36;20287;-49
2022/08/02 08:45:13;;;;;;;8.18;5.72;;;;;;;22.97;100.00;101590.09;2613658;36;20037;-54
2022/08/02 08:47:43;;;;;;;9.32;6.07;;;;;;;22.93;100.00;101591.56;2613448;36;20027;-53
2022/08/02 08:50:13;;;;;;;8.98;6.82;;;;;;;22.71;100.00;101586.09;2615699;36;20429;-47
2022/08/02 08:52:48;;;;;;;11.82;6.38;;;;;;;22.72;100.00;101589.72;2615384;36;20051;-53
2022/08/02 08:55:17;;;;;;;8.25;5.43;;;;;;;22.95;100.00;101603.16;2615590;36;20602;-49
2022/08/02 08:57:48;;;;;;;8.95;6.60;;;;;;;22.72;100.00;101587.81;2614786;36;20397;-49
2022/08/02 09:00:17;;;;;;;11.38;6.47;;;;;;;22.75;100.00;101598.38;2615487;36;20714;-54
2022/08/02 09:02:46;;;;;;;7.85;5.85;;;;;;;22.94;100.00;101596.00;2614788;36;20038;-49
2022/08/02 09:05:16;;;;;;;8.15;5.20;;;;;;;23.30;100.00;101594.97;2615744;36;20376;-50
2022/08/02 09:07:48;;;;;;;11.90;5.38;;;;;;;23.74;100.00;101601.94;2615018;36;20031;-51
2022/08/02 09:10:42;;;;;;;7.70;5.72;;;;;;;23.93;100.00;101605.00;2614562;36;20069;-47
2022/08/02 09:13:19;;;;;;;9.40;5.20;;;;;;;24.17;100.00;101600.00;2614773;36;20073;-48
2022/08/02 09:15:55;;;;;;;7.88;5.07;;;;;;;24.12;100.00;101590.47;2615495;31;20035;-51
2022/08/02 09:18:32;;;;;;;9.80;5.90;;;;;;;24.06;100.00;101593.22;2614034;36;20456;-52
2022/08/02 09:21:01;;;;;;;8.93;5.53;;;;;;;24.04;100.00;101604.41;2615638;36;20209;-50
2022/08/02 09:23:36;;;;;;;7.97;4.72;;;;;;;24.18;100.00;101590.69;2615108;36;20590;-49
2022/08/02 09:26:08;;;;;;;7.68;4.65;;;;;;;24.16;100.00;101601.91;2615299;36;20041;-53
2022/08/02 09:28:41;;;;;;;9.40;5.35;;;;;;;24.07;100.00;101600.38;2614516;36;20038;-50
2022/08/02 09:31:11;;;;;;;9.13;5.45;;;;;;;23.91;100.00;101594.22;2614036;31;20060;-47
2022/08/02 09:33:46;;;;;;;9.63;6.13;;;;;;;23.80;100.00;101597.53;2614465;54;20031;-48
2022/08/02 09:36:17;;;;;;;9.05;4.85;;;;;;;24.34;100.00;101593.03;2614654;36;20563;-50
2022/08/02 09:38:55;;;;;;;7.60;4.40;;;;;;;24.54;100.00;101589.44;2615285;36;20041;-51
2022/08/02 09:41:24;;;;;;;6.88;4.20;;;;;;;24.70;100.00;101588.22;2615853;36;20455;-50
2022/08/02 09:43:57;;;;;;;7.93;4.00;;;;;;;24.97;100.00;101589.88;2615037;36;20034;-51
2022/08/02 09:46:28;;;;;;;4.28;3.30;;;;;;;24.94;100.00;101586.69;2614574;36;20057;-51
2022/08/02 09:48:58;;;;;;;4.05;3.10;;;;;;;25.04;100.00;101592.59;2614733;36;20114;-51
2022/08/02 09:51:28;;;;;;;7.45;3.47;;;;;;;25.12;100.00;101592.38;2615388;36;20170;-46
2022/08/02 09:53:58;;;;;;;4.85;2.97;;;;;;;24.90;100.00;101589.03;2614670;36;20030;-50
2022/08/02 09:56:28;;;;;;;7.80;3.20;;;;;;;25.29;100.00;101591.91;2615623;31;20453;-49
2022/08/02 09:58:59;;;;;;;7.15;2.85;;;;;;;25.14;100.00;101592.16;2614806;36;20034;-51
2022/08/02 10:01:33;;;;;;;4.45;2.75;;;;;;;24.95;100.00;101599.41;2614244;36;20089;-48
2022/08/02 10:04:03;;;;;;;6.03;3.08;;;;;;;25.01;100.00;101596.66;2614375;36;20022;-52
2022/08/02 10:06:33;;;;;;;3.55;2.35;;;;;;;25.16;100.00;101588.16;2613107;36;20031;-48
2022/08/02 10:09:02;;;;;;;5.72;2.97;;;;;;;25.19;100.00;101593.22;2615407;36;20455;-50
2022/08/02 10:11:31;;;;;;;4.57;2.38;;;;;;;25.86;100.00;101592.13;2614437;31;20034;-48
2022/08/02 10:14:04;;;;;;;5.82;2.53;;;;;;;25.41;100.00;101595.75;2615049;36;20037;-48
2022/08/02 10:16:35;;;;;;;4.60;2.10;;;;;;;25.30;100.00;101593.63;2615023;36;20030;-49
2022/08/02 10:19:04;;;;;;;4.85;3.22;;;;;;;24.61;100.00;101604.09;2614689;36;20030;-49
2022/08/02 10:21:37;;;;;;;6.65;3.08;;;;;;;24.74;100.00;101595.81;2614737;36;20042;-49
2022/08/02 10:24:09;;;;;;;5.35;3.40;;;;;;;24.80;100.00;101594.97;2615350;36;20437;-52
2022/08/02 10:26:40;;;;;;;3.70;2.75;;;;;;;25.16;100.00;101592.78;2615598;31;20444;-52
2022/08/02 10:29:13;;;;;;;4.93;3.13;;;;;;;25.74;100.00;101585.63;2614740;36;20035;-54
2022/08/02 10:31:48;;;;;;;4.32;3.30;;;;;;;25.67;100.00;101588.41;2614860;36;20958;-49
2022/08/02 10:34:20;;;;;;;4.82;3.03;;;;;;;25.69;100.00;101595.41;2612661;31;20034;-49
2022/08/02 10:36:51;;;;;;;6.10;2.70;;;;;;;26.04;100.00;101599.69;2613517;31;20540;-50
2022/08/02 10:39:19;;;;;;;6.63;3.33;;;;;;;26.28;100.00;101597.22;2613640;36;20030;-49
2022/08/02 10:41:49;;;;;;;5.50;3.70;;;;;;;26.14;100.00;101589.03;2614319;36;20038;-48
2022/08/02 10:44:31;;;;;;;5.13;4.32;;;;;;;25.26;100.00;101575.81;2614248;36;20046;-50
2022/08/02 10:47:25;;;;;;;9.55;4.28;;;;;;;25.56;100.00;101580.81;2613425;36;20083;-48
2022/08/02 10:49:56;;;;;;;5.07;3.58;;;;;;;25.56;100.00;101575.31;2614441;36;20038;-48
2022/08/02 10:52:25;;;;;;;5.93;3.92;;;;;;;25.80;100.00;101574.56;2614160;36;20042;-46
2022/08/02 10:54:58;;;;;;;4.35;3.30;;;;;;;26.12;100.00;101573.75;2614876;36;20064;-49
2022/08/02 10:57:28;;;;;;;7.93;3.58;;;;;;;26.21;100.00;101572.44;2614605;36;20034;-49
2022/08/02 11:00:02;;;;;;;4.18;3.28;;;;;;;26.18;100.00;101581.16;2615427;36;20390;-49
2022/08/02 11:02:42;;;;;;;5.10;3.80;;;;;;;26.09;100.00;101579.72;2614002;36;20034;-52
2022/08/02 11:05:16;;;;;;;6.15;3.80;;;;;;;26.18;100.00;101579.25;2614769;36;20057;-47
2022/08/02 11:07:47;;;;;;;4.28;3.28;;;;;;;26.64;100.00;101581.88;2614645;36;20539;-50
2022/08/02 11:10:32;;;;;;;6.72;4.15;;;;;;;26.87;100.00;101576.56;2615141;36;20475;-54
2022/08/02 11:13:02;;;;;;;6.57;4.18;;;;;;;27.11;100.00;101576.75;2614392;36;20031;-49
2022/08/02 11:15:50;;;;;;;7.97;4.95;;;;;;;26.53;100.00;101564.97;2615971;31;20485;-53
2022/08/02 11:18:19;;;;;;;6.32;3.80;;;;;;;26.50;100.00;101559.91;2614475;36;20038;-53
2022/08/02 11:20:47;;;;;;;7.40;5.22;;;;;;;26.53;100.00;101567.72;2615736;36;20053;-50
2022/08/02 11:23:38;;;;;;;10.77;4.47;;;;;;;26.95;100.00;101571.84;2615636;36;20440;-50
2022/08/02 11:26:45;;;;;;;6.32;4.10;;;;;;;26.69;100.00;101576.53;2615217;36;20424;-49
2022/08/02 11:29:14;;;;;;;5.43;3.60;;;;;;;26.73;100.00;101575.84;2614376;36;20122;-49
2022/08/02 11:31:47;;;;;;;4.65;3.65;;;;;;;27.21;100.00;101582.59;2614997;36;20031;-50
2022/08/02 11:34:18;;;;;;;5.90;3.85;;;;;;;27.69;100.00;101580.13;2615301;36;20555;-49
2022/08/02 11:36:48;;;;;;;5.93;4.25;;;;;;;27.64;100.00;101582.75;2615179;31;20081;-48
2022/08/02 11:39:19;;;;;;;7.38;4.35;;;;;;;27.42;100.00;101577.72;2632844;36;20030;-48
2022/08/02 11:41:51;;;;;;;7.88;4.35;;;;;;;27.67;100.00;101579.53;2615231;36;20023;-55